Saint-Timothee, Canada
Current Conditions -  °F | °C
As of 2:00 PM on Friday 28 Nov 2014 (Local Time) from CYUL Reporting Station
Broken Clouds Broken Clouds  
Wind Chill: 12°   Ceiling: 4300
Heat Index: 25°   Visibility: 15mi
Dew Point: 14°   Wind: 15mph
Humidity: 64%   Direction: 240°WSW
Pressure: 30.11"   Gusts: 23mph
Location:  45.28°N, 74.05°W
Report Text: CYUL 281900Z 24013G20KT 15SM FEW025 BKN043 BKN090 M04/M10 A3011 RMK SC2SC3AC1 SLP197
Loading
Personal Weather Stations






























Interactive Weather Map New forecast layout! Learn more

10-Day Weather Forecast

Advertisements
Track Severe Weather on mobile